Time;durP1;ratioP1;P1;durP2;ratioP2;P2;SDS_P1;SDS_P2;PMS_P1;PMS_P2;Temp;Humidity;BMP_temperature;BMP_pressure;BME280_temperature;BME280_humidity;BME280_pressure;Samples;Min_cycle;Max_cycle;Signal;HPM_P1;HPM_P2
2022/11/25 00:01:37;;;;;;;20.00;12.10;;;1.80;99.90;;;;;;5013104;28;20274;-87
2022/11/25 00:04:09;;;;;;;25.27;11.50;;;1.80;99.90;;;;;;5012901;28;20196;-87
2022/11/25 00:06:35;;;;;;;18.83;11.30;;;1.80;99.90;;;;;;5012601;28;20290;-87
2022/11/25 00:09:08;;;;;;;19.33;12.10;;;1.70;99.90;;;;;;5012895;28;20178;-87
2022/11/25 00:11:35;;;;;;;21.83;12.20;;;1.70;99.90;;;;;;5012325;28;20281;-87
2022/11/25 00:14:01;;;;;;;18.90;11.97;;;1.80;99.90;;;;;;5012596;28;20183;-87
2022/11/25 00:16:27;;;;;;;20.23;11.90;;;1.80;99.90;;;;;;5012406;28;20297;-87
2022/11/25 00:18:55;;;;;;;19.33;12.00;;;1.80;99.90;;;;;;5012260;28;20207;-87
2022/11/25 00:21:23;;;;;;;19.27;11.73;;;1.80;99.90;;;;;;5012440;28;20174;-87
2022/11/25 00:23:52;;;;;;;18.23;11.40;;;1.80;99.90;;;;;;5012467;28;20191;-87
2022/11/25 00:26:18;;;;;;;22.00;11.87;;;1.80;99.90;;;;;;5011797;28;20207;-87
2022/11/25 00:28:45;;;;;;;17.90;10.60;;;1.80;99.90;;;;;;5011919;28;20183;-87
2022/11/25 00:31:12;;;;;;;14.23;9.43;;;1.80;99.90;;;;;;5012099;28;20282;-87
2022/11/25 00:33:39;;;;;;;17.50;10.90;;;1.80;99.90;;;;;;5012025;28;20211;-87
2022/11/25 00:36:18;;;;;;;16.17;10.53;;;1.80;99.90;;;;;;5012046;28;20230;-87
2022/11/25 00:38:45;;;;;;;15.87;10.30;;;1.80;99.90;;;;;;5012180;28;20185;-87
2022/11/25 00:46:41;;;;;;;18.20;11.23;;;1.80;99.90;;;;;;5011734;28;20202;-87
2022/11/25 00:49:07;;;;;;;18.40;11.67;;;1.80;99.90;;;;;;5011965;28;20194;-87
2022/11/25 00:51:33;;;;;;;17.87;11.03;;;1.90;99.90;;;;;;5012298;28;20183;-87
2022/11/25 00:53:59;;;;;;;14.73;10.67;;;1.90;99.90;;;;;;5012015;28;20183;-87
2022/11/25 00:56:25;;;;;;;15.53;10.00;;;1.90;99.90;;;;;;5012021;28;20242;-87
2022/11/25 00:58:52;;;;;;;16.20;9.97;;;2.00;99.90;;;;;;5011608;28;20178;-87
2022/11/25 01:05:06;;;;;;;18.10;9.77;;;2.00;99.90;;;;;;5012902;28;20225;-87
2022/11/25 01:07:33;;;;;;;20.70;10.70;;;2.00;99.90;;;;;;5011767;28;20190;-87
2022/11/25 01:09:59;;;;;;;17.07;9.73;;;2.00;99.90;;;;;;5011763;28;20179;-87
2022/11/25 01:12:25;;;;;;;14.37;9.67;;;2.00;99.90;;;;;;5028114;28;20222;-87
2022/11/25 01:14:54;;;;;;;16.47;9.30;;;2.00;99.90;;;;;;5011529;28;20199;-87
2022/11/25 01:17:20;;;;;;;16.37;9.40;;;2.00;99.90;;;;;;5027928;28;20167;-87
2022/11/25 01:19:46;;;;;;;17.47;9.10;;;2.10;99.90;;;;;;5011692;28;20171;-87
2022/11/25 01:22:12;;;;;;;15.30;9.03;;;2.10;99.90;;;;;;4995360;28;20266;-87
2022/11/25 01:24:41;;;;;;;11.70;7.83;;;2.10;99.90;;;;;;5011486;28;20270;-87
2022/11/25 01:27:07;;;;;;;11.47;7.53;;;2.10;99.90;;;;;;5011271;28;20286;-87
2022/11/25 01:29:33;;;;;;;11.40;7.60;;;2.10;99.90;;;;;;5011585;28;20314;-87
2022/11/25 01:31:59;;;;;;;13.83;8.20;;;2.10;99.90;;;;;;5011368;28;20199;-87
2022/11/25 01:34:26;;;;;;;10.97;7.87;;;2.10;99.90;;;;;;5011478;28;20274;-87
2022/11/25 01:36:55;;;;;;;14.73;10.07;;;2.10;99.90;;;;;;5011194;28;20739;-87
2022/11/25 01:39:24;;;;;;;17.97;9.13;;;2.10;99.90;;;;;;5014141;28;20176;-87
2022/11/25 01:41:50;;;;;;;14.33;9.17;;;2.10;99.90;;;;;;5015437;28;20186;-87
2022/11/25 01:44:21;;;;;;;15.97;9.47;;;2.10;99.90;;;;;;5031817;28;20180;-87
2022/11/25 01:47:05;;;;;;;15.30;9.70;;;2.20;99.90;;;;;;5015281;28;20214;-87
2022/11/25 01:49:34;;;;;;;14.17;9.47;;;2.20;99.90;;;;;;4998617;28;20214;-87
2022/11/25 01:52:02;;;;;;;15.90;9.53;;;2.20;99.90;;;;;;4998600;28;20221;-87
2022/11/25 01:54:34;;;;;;;13.17;8.73;;;2.20;99.90;;;;;;4998598;28;20222;-87
2022/11/25 01:57:08;;;;;;;11.90;8.40;;;2.20;99.90;;;;;;5014914;28;20163;-87
2022/11/25 01:59:38;;;;;;;15.17;8.10;;;2.30;99.90;;;;;;5015020;28;20194;-87
2022/11/25 02:02:05;;;;;;;12.77;8.43;;;2.20;99.90;;;;;;5015247;28;20178;-87
2022/11/25 02:04:34;;;;;;;19.30;9.73;;;2.00;99.90;;;;;;5031363;28;20183;-87
2022/11/25 02:07:14;;;;;;;17.47;8.90;;;1.90;99.90;;;;;;5031126;28;20186;-87
2022/11/25 02:09:44;;;;;;;18.23;9.33;;;1.60;99.90;;;;;;5014678;28;20178;-87
2022/11/25 02:12:15;;;;;;;12.97;9.07;;;1.40;99.90;;;;;;5014982;28;20234;-87
2022/11/25 02:14:41;;;;;;;14.07;9.53;;;1.30;99.90;;;;;;5014379;28;20185;-87
2022/11/25 02:17:07;;;;;;;13.30;9.50;;;1.30;99.90;;;;;;5013687;28;20209;-87
2022/11/25 02:19:45;;;;;;;19.33;9.63;;;1.40;99.90;;;;;;5014923;28;20214;-87
2022/11/25 02:22:21;;;;;;;16.67;10.33;;;1.30;99.90;;;;;;5014826;28;20699;-87
2022/11/25 02:24:53;;;;;;;20.20;11.07;;;1.20;99.90;;;;;;5014850;28;20209;-87
2022/11/25 02:27:20;;;;;;;16.60;10.93;;;1.10;99.90;;;;;;5014466;28;20170;-87
2022/11/25 02:29:48;;;;;;;14.73;9.83;;;1.20;99.90;;;;;;5014457;28;20190;-87
2022/11/25 02:32:19;;;;;;;17.50;9.93;;;1.30;99.90;;;;;;5014582;28;20211;-87
2022/11/25 02:34:46;;;;;;;16.57;9.90;;;1.30;99.90;;;;;;5014336;28;20180;-87
2022/11/25 02:37:13;;;;;;;18.17;10.77;;;1.30;99.90;;;;;;5014214;28;20236;-87
2022/11/25 02:39:39;;;;;;;16.33;9.07;;;1.30;99.90;;;;;;5014590;28;20185;-87
2022/11/25 02:42:06;;;;;;;15.67;10.23;;;1.40;99.90;;;;;;5015534;28;20180;-87
2022/11/25 02:44:32;;;;;;;14.30;9.60;;;1.50;99.90;;;;;;5014363;28;20190;-87
2022/11/25 02:46:58;;;;;;;14.80;10.00;;;1.60;99.90;;;;;;5030789;28;20222;-87
2022/11/25 02:49:24;;;;;;;17.07;9.87;;;1.60;99.90;;;;;;5013407;28;20198;-87
2022/11/25 02:51:50;;;;;;;15.93;9.50;;;1.60;99.90;;;;;;5030212;28;20211;-87
2022/11/25 02:54:17;;;;;;;14.97;9.70;;;1.70;99.90;;;;;;5013224;28;20182;-87
2022/11/25 02:56:43;;;;;;;14.67;9.60;;;1.70;99.90;;;;;;5013947;28;20213;-87
2022/11/25 02:59:10;;;;;;;13.63;8.97;;;1.70;99.90;;;;;;5013887;28;20178;-87
2022/11/25 03:01:39;;;;;;;14.37;9.27;;;1.70;99.90;;;;;;5014018;28;20205;-87
2022/11/25 03:04:08;;;;;;;18.40;9.40;;;1.80;99.90;;;;;;5013846;28;20168;-87
2022/11/25 03:06:34;;;;;;;14.97;8.67;;;1.80;99.90;;;;;;5013553;28;20274;-87
2022/11/25 03:09:01;;;;;;;12.03;8.67;;;1.80;99.90;;;;;;5013464;28;20322;-87
2022/11/25 03:14:13;;;;;;;17.33;10.13;;;1.80;99.90;;;;;;5030141;28;20210;-87
2022/11/25 03:16:39;;;;;;;12.57;8.07;;;1.80;99.90;;;;;;5013798;28;20199;-87
2022/11/25 03:19:05;;;;;;;13.20;8.93;;;1.80;99.90;;;;;;5013431;28;20172;-87
2022/11/25 03:21:31;;;;;;;16.70;9.23;;;1.80;99.90;;;;;;5013469;28;20183;-87
2022/11/25 03:23:57;;;;;;;14.73;8.63;;;1.90;99.90;;;;;;5013407;28;20198;-87
2022/11/25 03:26:24;;;;;;;13.17;8.80;;;1.90;99.90;;;;;;5013531;28;20210;-87
2022/11/25 03:28:51;;;;;;;16.03;8.20;;;1.90;99.90;;;;;;5013471;28;20183;-87
2022/11/25 03:31:17;;;;;;;16.63;8.30;;;1.90;99.90;;;;;;5029719;28;20186;-87
2022/11/25 03:33:43;;;;;;;12.33;7.77;;;1.90;99.90;;;;;;5013462;28;20297;-87
2022/11/25 03:36:09;;;;;;;11.40;7.33;;;2.00;99.90;;;;;;5029366;28;20203;-87
2022/11/25 03:38:35;;;;;;;10.83;7.27;;;1.90;99.90;;;;;;5029581;28;20690;-87
2022/11/25 03:41:01;;;;;;;11.50;6.90;;;2.00;99.90;;;;;;5013342;28;20198;-87
2022/11/25 03:43:27;;;;;;;11.47;6.77;;;1.90;99.90;;;;;;5029449;28;20190;-87
2022/11/25 03:45:53;;;;;;;12.87;7.70;;;1.90;99.90;;;;;;5029400;28;20206;-87
2022/11/25 03:48:19;;;;;;;13.67;8.07;;;1.90;99.90;;;;;;5029030;28;20183;-87
2022/11/25 03:50:47;;;;;;;10.90;7.43;;;2.00;99.90;;;;;;5029424;28;20198;-87
2022/11/25 03:53:13;;;;;;;10.47;7.27;;;2.00;99.90;;;;;;5012793;28;20213;-87
2022/11/25 03:55:39;;;;;;;11.30;7.00;;;2.00;99.90;;;;;;5029373;28;20199;-87
2022/11/25 03:58:05;;;;;;;10.30;7.17;;;2.00;99.90;;;;;;5029220;28;20189;-87
2022/11/25 04:00:32;;;;;;;11.33;7.23;;;2.00;99.90;;;;;;5011993;28;20686;-88
2022/11/25 04:03:02;;;;;;;10.10;6.23;;;2.00;99.90;;;;;;5012599;28;20629;-87
2022/11/25 04:05:30;;;;;;;10.10;7.40;;;2.00;99.90;;;;;;5012529;28;20215;-87
2022/11/25 04:08:00;;;;;;;13.50;8.23;;;2.00;99.90;;;;;;4996777;28;20179;-87
2022/11/25 04:10:26;;;;;;;13.37;8.87;;;1.90;99.90;;;;;;4996628;28;20186;-87
2022/11/25 04:12:54;;;;;;;13.63;8.43;;;1.90;99.90;;;;;;4996263;28;20234;-87
2022/11/25 04:15:30;;;;;;;10.20;7.30;;;1.90;99.90;;;;;;4997519;28;20249;-87
2022/11/25 04:17:57;;;;;;;11.73;6.50;;;1.90;99.90;;;;;;4996175;28;20233;-87
2022/11/25 04:20:24;;;;;;;9.50;6.23;;;1.90;99.90;;;;;;4996277;28;20214;-87
2022/11/25 04:22:56;;;;;;;11.27;6.93;;;1.80;99.90;;;;;;5012931;28;20269;-88
2022/11/25 04:25:22;;;;;;;8.93;6.20;;;1.90;99.90;;;;;;5012554;28;20198;-87
2022/11/25 04:27:49;;;;;;;10.50;6.50;;;1.90;99.90;;;;;;5012024;28;20274;-87
2022/11/25 04:30:19;;;;;;;10.93;6.73;;;1.80;99.90;;;;;;4996427;28;20215;-87
2022/11/25 04:32:45;;;;;;;13.53;7.20;;;1.80;99.90;;;;;;4995925;28;20254;-87
2022/11/25 04:35:12;;;;;;;14.57;7.30;;;1.80;99.90;;;;;;4995987;28;20200;-87
2022/11/25 04:37:42;;;;;;;13.10;8.40;;;1.80;99.90;;;;;;4996190;28;20182;-87
2022/11/25 04:43:37;;;;;;;12.53;7.97;;;1.80;99.90;;;;;;5011496;28;20273;-88
2022/11/25 04:46:18;;;;;;;13.47;7.97;;;1.80;99.90;;;;;;5011394;28;20214;-88
2022/11/25 04:48:48;;;;;;;11.97;8.00;;;1.80;99.90;;;;;;5011536;28;20213;-89
2022/11/25 04:51:15;;;;;;;10.73;7.70;;;1.80;99.90;;;;;;5012028;28;20540;-89
2022/11/25 04:53:42;;;;;;;11.30;7.00;;;1.70;99.90;;;;;;5011732;28;20230;-88
2022/11/25 04:56:17;;;;;;;11.83;6.60;;;1.70;99.90;;;;;;5011701;28;20202;-89
2022/11/25 05:01:29;;;;;;;13.03;7.40;;;1.50;99.90;;;;;;5027438;28;20171;-88
2022/11/25 05:04:03;;;;;;;11.40;7.17;;;1.40;99.90;;;;;;5011996;28;20251;-86
2022/11/25 05:06:29;;;;;;;8.70;7.27;;;1.40;99.90;;;;;;5011877;28;20257;-89
2022/11/25 05:08:55;;;;;;;10.47;7.17;;;1.50;99.90;;;;;;5005236;28;20183;-89
2022/11/25 05:11:23;;;;;;;9.93;6.67;;;1.50;99.90;;;;;;5012455;28;20186;-88
2022/11/25 05:13:50;;;;;;;10.60;7.00;;;1.50;99.90;;;;;;5012465;28;20253;-88
2022/11/25 05:16:16;;;;;;;10.23;6.80;;;1.50;99.90;;;;;;5011903;28;20228;-88
2022/11/25 05:18:42;;;;;;;10.70;7.20;;;1.40;99.90;;;;;;5011055;28;20186;-88
2022/11/25 05:21:08;;;;;;;14.73;9.10;;;1.40;99.90;;;;;;5040132;28;20181;-88
2022/11/25 05:23:38;;;;;;;15.27;8.33;;;1.40;99.90;;;;;;5052157;28;20194;-87
2022/11/25 05:26:04;;;;;;;10.57;7.83;;;1.30;99.90;;;;;;5012942;28;20206;-88
2022/11/25 05:28:37;;;;;;;10.57;6.93;;;1.30;99.90;;;;;;5012124;28;20183;-88
2022/11/25 05:31:03;;;;;;;11.93;7.77;;;1.30;99.90;;;;;;5012235;28;20224;-88
2022/11/25 05:33:29;;;;;;;10.50;7.60;;;1.20;99.90;;;;;;5012269;28;20240;-88
2022/11/25 05:36:00;;;;;;;10.03;7.10;;;1.20;99.90;;;;;;5011686;28;20233;-88
2022/11/25 05:38:31;;;;;;;11.87;7.93;;;1.10;99.90;;;;;;5012084;28;20709;-88
2022/11/25 05:41:06;;;;;;;11.27;7.20;;;1.20;99.90;;;;;;4995759;28;20267;-88
2022/11/25 05:43:33;;;;;;;14.10;7.47;;;1.20;99.90;;;;;;4995778;28;20178;-88
2022/11/25 05:46:04;;;;;;;11.13;7.10;;;1.30;99.90;;;;;;5011804;28;20679;-88
2022/11/25 05:48:30;;;;;;;12.37;7.90;;;1.20;99.90;;;;;;5011616;28;20248;-88
2022/11/25 05:51:03;;;;;;;12.50;7.60;;;1.20;99.90;;;;;;4995734;28;20171;-88
2022/11/25 05:53:31;;;;;;;13.07;7.33;;;1.20;99.90;;;;;;5012070;28;20205;-89
2022/11/25 05:56:03;;;;;;;13.70;7.30;;;1.20;99.90;;;;;;5011222;28;20255;-88
2022/11/25 05:58:57;;;;;;;13.50;7.50;;;1.20;99.90;;;;;;5022604;28;20252;-87
2022/11/25 06:01:31;;;;;;;14.23;7.67;;;1.10;99.90;;;;;;5003278;28;20261;-87
2022/11/25 06:04:02;;;;;;;15.90;8.30;;;1.00;99.90;;;;;;5011522;28;20790;-87
2022/11/25 06:06:28;;;;;;;10.57;7.57;;;1.00;99.90;;;;;;5007841;28;20204;-87
2022/11/25 06:08:55;;;;;;;11.77;7.20;;;1.00;99.90;;;;;;5008072;28;20192;-87
2022/11/25 06:11:24;;;;;;;10.43;7.73;;;1.00;99.90;;;;;;5019962;28;20186;-87
2022/11/25 06:13:50;;;;;;;10.00;7.50;;;1.10;99.90;;;;;;5007215;28;20206;-88
2022/11/25 06:16:20;;;;;;;11.97;7.50;;;1.10;99.90;;;;;;5011049;28;20830;-88
2022/11/25 06:18:50;;;;;;;11.17;7.00;;;1.10;99.90;;;;;;5011159;28;20177;-88
2022/11/25 06:21:23;;;;;;;13.03;7.63;;;1.10;99.90;;;;;;4995212;28;20204;-88
2022/11/25 06:23:58;;;;;;;10.00;6.73;;;1.20;99.90;;;;;;5014912;28;20191;-89
2022/11/25 06:26:24;;;;;;;10.13;6.87;;;1.20;99.90;;;;;;5015184;28;20232;-87
2022/11/25 06:28:55;;;;;;;17.93;8.30;;;1.20;99.90;;;;;;5021272;28;20269;-87
2022/11/25 06:31:24;;;;;;;16.30;9.77;;;1.20;99.90;;;;;;5003034;28;20236;-87
2022/11/25 06:34:25;;;;;;;16.50;9.93;;;1.10;99.90;;;;;;4977708;28;20190;-87
2022/11/25 06:36:51;;;;;;;16.67;9.17;;;1.10;99.90;;;;;;4993608;28;20210;-87
2022/11/25 06:39:17;;;;;;;16.10;10.30;;;1.10;99.90;;;;;;4998193;28;20193;-87
2022/11/25 06:41:43;;;;;;;24.03;12.00;;;1.10;99.90;;;;;;4998297;28;20186;-87
2022/11/25 06:44:08;;;;;;;15.47;9.70;;;1.10;99.90;;;;;;4998202;28;20186;-87
2022/11/25 06:46:34;;;;;;;12.80;8.87;;;1.00;99.90;;;;;;4994458;28;20207;-87
2022/11/25 06:49:00;;;;;;;17.03;9.23;;;1.00;99.90;;;;;;4978187;28;20671;-87
2022/11/25 06:51:26;;;;;;;17.53;10.27;;;1.10;99.90;;;;;;4978440;28;20191;-87
2022/11/25 06:53:52;;;;;;;19.33;10.50;;;1.10;99.90;;;;;;4984512;28;20207;-86
2022/11/25 06:56:21;;;;;;;15.60;9.47;;;1.20;99.90;;;;;;5013568;28;20209;-87
2022/11/25 06:58:48;;;;;;;15.20;9.60;;;1.20;99.90;;;;;;5030987;28;20187;-79
2022/11/25 07:01:22;;;;;;;14.97;8.90;;;1.30;99.90;;;;;;5010218;28;20663;-87
2022/11/25 07:03:54;;;;;;;11.37;7.70;;;1.20;99.90;;;;;;5021107;28;20186;-86
2022/11/25 07:06:20;;;;;;;9.57;7.03;;;1.20;99.90;;;;;;4997263;28;20211;-87
2022/11/25 07:08:47;;;;;;;9.60;6.37;;;1.20;99.90;;;;;;5015106;28;20179;-87
2022/11/25 07:11:28;;;;;;;11.40;6.67;;;1.20;99.90;;;;;;4995831;28;20186;-87
2022/11/25 07:14:00;;;;;;;9.67;6.63;;;1.20;99.90;;;;;;5020511;28;20209;-86
2022/11/25 07:16:33;;;;;;;9.53;6.17;;;1.20;99.90;;;;;;5003886;28;20203;-87
2022/11/25 07:19:05;;;;;;;10.67;6.97;;;1.20;99.90;;;;;;5007767;28;20182;-87
2022/11/25 07:21:32;;;;;;;11.57;6.97;;;1.30;99.90;;;;;;5003740;28;20172;-82
2022/11/25 07:24:04;;;;;;;11.87;8.00;;;1.30;99.90;;;;;;5008711;28;20194;-81
2022/11/25 07:26:46;;;;;;;15.17;7.63;;;1.40;99.90;;;;;;4999616;28;20233;-80
2022/11/25 07:29:14;;;;;;;15.47;7.07;;;1.40;99.90;;;;;;4993014;28;20304;-79
2022/11/25 07:31:43;;;;;;;13.30;7.13;;;1.50;99.90;;;;;;5024922;28;20261;-85
2022/11/25 07:34:12;;;;;;;12.00;7.77;;;1.60;99.90;;;;;;4998903;28;20179;-86
2022/11/25 07:36:39;;;;;;;13.63;9.43;;;1.60;99.90;;;;;;5009524;28;20211;-85
2022/11/25 07:39:23;;;;;;;21.17;11.03;;;1.60;99.90;;;;;;5009492;28;20186;-85
2022/11/25 07:41:51;;;;;;;22.80;13.23;;;1.70;99.90;;;;;;5009707;28;20176;-86
2022/11/25 07:44:18;;;;;;;17.27;13.40;;;1.70;99.90;;;;;;5009605;28;20183;-86
2022/11/25 07:46:50;;;;;;;21.43;12.83;;;1.70;99.90;;;;;;5008699;28;20245;-86
2022/11/25 07:49:23;;;;;;;21.60;13.37;;;1.80;99.90;;;;;;5009838;28;20277;-86
2022/11/25 07:51:52;;;;;;;20.87;12.50;;;1.80;99.90;;;;;;5009733;28;20180;-86
2022/11/25 07:54:19;;;;;;;20.60;14.10;;;1.90;99.90;;;;;;4993453;28;20183;-86
2022/11/25 07:56:45;;;;;;;19.80;14.53;;;1.90;99.90;;;;;;5009167;28;20199;-85
2022/11/25 07:59:14;;;;;;;20.20;14.27;;;1.90;99.90;;;;;;5017197;28;20184;-85
2022/11/25 08:01:41;;;;;;;19.60;13.03;;;1.90;99.90;;;;;;5013026;28;20183;-86
2022/11/25 08:04:08;;;;;;;23.43;14.50;;;1.90;99.90;;;;;;5029133;28;20265;-86
2022/11/25 08:06:38;;;;;;;19.50;13.17;;;1.90;99.90;;;;;;5014257;28;20199;-86
2022/11/25 08:09:05;;;;;;;16.23;11.47;;;1.90;99.90;;;;;;5014213;28;20152;-85
2022/11/25 08:11:31;;;;;;;14.23;10.13;;;1.90;99.90;;;;;;4996708;28;20286;-85
2022/11/25 08:13:58;;;;;;;23.23;13.00;;;2.00;99.90;;;;;;4996631;28;20218;-85
2022/11/25 08:16:26;;;;;;;18.00;11.00;;;2.00;99.90;;;;;;4996258;28;20199;-85
2022/11/25 08:18:55;;;;;;;16.27;11.20;;;2.10;99.90;;;;;;5012835;28;20179;-85
2022/11/25 08:21:22;;;;;;;17.43;10.60;;;2.10;99.90;;;;;;5013627;28;20168;-85
2022/11/25 08:23:48;;;;;;;18.07;10.83;;;2.20;99.90;;;;;;4996035;28;20210;-85
2022/11/25 08:26:18;;;;;;;15.67;10.70;;;2.30;99.90;;;;;;4995643;28;20230;-86
2022/11/25 08:28:45;;;;;;;16.57;10.47;;;2.30;99.90;;;;;;5012075;28;20175;-85
2022/11/25 08:31:22;;;;;;;19.83;12.50;;;2.40;99.90;;;;;;4996130;28;20219;-85
2022/11/25 08:33:49;;;;;;;18.43;10.53;;;2.50;99.90;;;;;;4996316;28;20207;-85
2022/11/25 08:36:15;;;;;;;19.03;12.00;;;2.60;99.90;;;;;;4995886;28;20199;-85
2022/11/25 08:38:43;;;;;;;31.07;17.43;;;2.60;99.90;;;;;;4995703;28;20228;-85
2022/11/25 08:41:14;;;;;;;52.43;26.23;;;2.70;99.90;;;;;;4995961;28;20175;-85
2022/11/25 08:43:40;;;;;;;44.20;23.13;;;2.70;99.90;;;;;;5012315;28;20171;-85
2022/11/25 08:46:10;;;;;;;18.43;13.17;;;2.80;99.90;;;;;;5011642;28;20207;-85
2022/11/25 08:48:37;;;;;;;17.23;12.63;;;2.80;99.90;;;;;;4995289;28;20198;-86
2022/11/25 08:51:11;;;;;;;15.97;9.83;;;2.80;99.90;;;;;;4995901;28;20179;-85
2022/11/25 08:53:38;;;;;;;11.53;8.77;;;2.80;99.90;;;;;;5012047;28;20241;-85
2022/11/25 08:56:05;;;;;;;12.80;8.80;;;2.90;99.90;;;;;;5011817;28;20250;-85
2022/11/25 08:58:31;;;;;;;12.23;8.37;;;2.90;99.90;;;;;;4994376;28;20226;-85
2022/11/25 09:00:57;;;;;;;10.77;8.27;;;3.00;99.90;;;;;;4995373;28;20179;-85
2022/11/25 09:03:23;;;;;;;11.77;7.73;;;3.00;99.90;;;;;;5013261;28;20174;-85
2022/11/25 09:05:51;;;;;;;13.23;8.90;;;3.10;99.90;;;;;;4995743;28;20265;-85
2022/11/25 09:08:17;;;;;;;13.30;8.90;;;3.20;99.90;;;;;;5013344;28;20210;-85
2022/11/25 09:10:43;;;;;;;14.40;9.00;;;3.30;99.90;;;;;;5013330;28;20182;-85
2022/11/25 09:13:10;;;;;;;15.20;9.60;;;3.40;99.90;;;;;;5012690;28;20199;-85
2022/11/25 09:15:37;;;;;;;17.90;9.57;;;3.60;99.90;;;;;;5011856;28;20203;-85
2022/11/25 09:18:06;;;;;;;15.83;10.70;;;3.80;99.90;;;;;;5011053;28;20175;-85
2022/11/25 09:20:39;;;;;;;17.17;11.17;;;3.90;99.90;;;;;;4995309;28;20190;-86
2022/11/25 09:23:06;;;;;;;15.87;11.50;;;4.00;99.90;;;;;;5011831;28;20258;-86
2022/11/25 09:25:33;;;;;;;17.80;11.93;;;4.00;99.90;;;;;;4995268;28;20206;-86
2022/11/25 09:27:59;;;;;;;17.17;11.13;;;4.10;99.90;;;;;;5011243;28;20219;-86
2022/11/25 09:30:28;;;;;;;19.53;12.57;;;4.20;99.90;;;;;;4994711;28;20221;-86
2022/11/25 09:32:55;;;;;;;10.03;7.63;;;4.20;99.90;;;;;;5011689;28;20199;-86
2022/11/25 09:35:22;;;;;;;10.17;7.83;;;4.30;99.90;;;;;;4995104;28;20211;-86
2022/11/25 09:37:49;;;;;;;12.47;8.07;;;4.40;99.90;;;;;;5011288;28;20185;-86
2022/11/25 09:40:40;;;;;;;13.00;8.77;;;4.40;99.90;;;;;;4995248;28;20175;-85
2022/11/25 09:49:22;;;;;;;14.57;9.00;;;4.70;99.90;;;;;;5027637;28;20270;-86
2022/11/25 09:51:59;;;;;;;17.73;10.93;;;4.70;99.90;;;;;;5012816;28;20263;-86
2022/11/25 09:54:42;;;;;;;22.90;13.27;;;4.80;99.90;;;;;;5011514;28;20249;-86
2022/11/25 09:57:34;;;;;;;19.13;11.33;;;4.90;99.90;;;;;;5011312;28;20268;-86
2022/11/25 10:00:19;;;;;;;16.17;12.10;;;5.00;99.90;;;;;;5015547;28;20219;-86
2022/11/25 10:03:15;;;;;;;20.40;12.97;;;5.10;99.90;;;;;;4995441;28;20185;-86
2022/11/25 10:06:02;;;;;;;20.00;12.73;;;5.10;99.90;;;;;;5011727;28;20200;-86
2022/11/25 10:08:50;;;;;;;17.43;12.50;;;5.10;99.90;;;;;;5011598;28;20179;-86
2022/11/25 10:11:23;;;;;;;14.33;8.93;;;5.20;99.90;;;;;;5011692;28;20251;-86
2022/11/25 10:14:10;;;;;;;9.27;6.23;;;5.20;99.90;;;;;;4979541;28;20225;-86
2022/11/25 10:17:14;;;;;;;9.80;5.57;;;5.20;99.90;;;;;;4978897;28;20205;-86
2022/11/25 10:20:11;;;;;;;9.00;5.80;;;5.30;99.90;;;;;;4995241;28;20180;-86
2022/11/25 10:22:45;;;;;;;9.43;6.17;;;5.40;99.90;;;;;;5011698;28;20182;-86
2022/11/25 10:25:14;;;;;;;10.27;6.47;;;5.40;99.90;;;;;;5011513;28;20210;-86
2022/11/25 10:28:05;;;;;;;10.53;7.27;;;5.60;99.90;;;;;;4995216;28;20210;-86
2022/11/25 10:30:37;;;;;;;9.87;7.00;;;5.80;99.90;;;;;;5000917;28;20230;-86
2022/11/25 10:33:25;;;;;;;12.60;7.50;;;6.00;99.90;;;;;;4994801;28;20278;-86
2022/11/25 10:36:03;;;;;;;14.47;7.60;;;6.30;99.90;;;;;;5009797;28;20206;-85
2022/11/25 10:38:40;;;;;;;9.77;6.50;;;6.60;99.90;;;;;;5014447;28;20172;-87
2022/11/25 10:41:08;;;;;;;8.47;6.23;;;6.70;99.90;;;;;;4998082;28;20665;-87
2022/11/25 10:43:36;;;;;;;10.00;6.73;;;6.90;99.90;;;;;;4997914;28;20187;-86
2022/11/25 10:46:19;;;;;;;9.43;6.27;;;6.90;99.90;;;;;;4997867;28;20208;-86
2022/11/25 10:49:06;;;;;;;9.73;6.37;;;7.00;99.90;;;;;;4994858;28;20226;-86
2022/11/25 10:51:49;;;;;;;9.77;6.80;;;7.00;99.90;;;;;;4978694;28;20199;-86
2022/11/25 10:54:26;;;;;;;12.90;6.80;;;6.90;99.90;;;;;;5014128;28;20225;-86
2022/11/25 10:57:01;;;;;;;9.27;6.77;;;6.90;99.90;;;;;;5013590;28;20210;-87
2022/11/25 10:59:40;;;;;;;10.17;6.73;;;6.80;99.90;;;;;;5014085;28;20214;-86
2022/11/25 11:02:39;;;;;;;9.07;6.33;;;6.80;99.90;;;;;;5013925;28;20636;-86
2022/11/25 11:05:11;;;;;;;11.57;7.43;;;6.70;99.90;;;;;;4960931;28;20214;-86
2022/11/25 11:07:44;;;;;;;10.63;8.13;;;6.70;99.90;;;;;;5012267;28;20230;-86
2022/11/25 11:10:25;;;;;;;17.57;11.80;;;6.70;99.90;;;;;;4996944;28;20193;-86
2022/11/25 11:13:04;;;;;;;16.23;10.80;;;6.80;99.90;;;;;;4997648;28;20278;-86
2022/11/25 11:15:43;;;;;;;14.60;9.20;;;6.70;99.90;;;;;;5030064;28;20199;-86
2022/11/25 11:18:36;;;;;;;16.67;10.23;;;6.70;99.90;;;;;;5013897;28;20253;-86
2022/11/25 11:21:07;;;;;;;15.87;10.17;;;6.70;99.90;;;;;;5010416;28;20198;-86
2022/11/25 11:23:53;;;;;;;16.83;10.33;;;6.60;99.90;;;;;;5014028;28;20174;-86
2022/11/25 11:26:28;;;;;;;16.50;10.37;;;6.60;99.90;;;;;;5013564;28;20195;-86
2022/11/25 11:29:03;;;;;;;14.20;9.90;;;6.60;99.90;;;;;;5013850;28;20216;-86
2022/11/25 11:31:38;;;;;;;18.70;10.70;;;6.60;99.90;;;;;;5013594;28;20166;-86
2022/11/25 11:34:45;;;;;;;14.63;9.67;;;6.60;99.90;;;;;;5013512;28;20257;-86
2022/11/25 11:37:30;;;;;;;19.27;11.63;;;6.60;99.90;;;;;;4995906;28;20183;-86
2022/11/25 11:40:02;;;;;;;18.30;11.60;;;6.60;99.90;;;;;;4996605;28;20174;-86
2022/11/25 11:42:57;;;;;;;16.37;11.47;;;6.60;99.90;;;;;;4998072;28;20193;-86
2022/11/25 11:45:23;;;;;;;15.03;11.87;;;6.70;99.90;;;;;;5014709;28;20217;-86
2022/11/25 11:48:19;;;;;;;24.17;14.83;;;6.70;99.90;;;;;;5001584;28;20179;-86
2022/11/25 11:51:28;;;;;;;32.13;20.57;;;6.70;99.90;;;;;;5016767;28;20189;-86
2022/11/25 11:54:14;;;;;;;24.90;15.73;;;6.70;99.90;;;;;;4991368;28;20298;-86
2022/11/25 11:57:08;;;;;;;23.77;14.03;;;6.80;99.90;;;;;;4996178;28;20218;-85
2022/11/25 12:00:03;;;;;;;21.43;12.57;;;6.80;99.90;;;;;;5013161;28;20197;-86
2022/11/25 12:02:58;;;;;;;22.37;13.63;;;6.80;99.90;;;;;;5000669;28;20182;-86
2022/11/25 12:05:30;;;;;;;25.53;15.77;;;6.80;99.90;;;;;;5012682;28;20250;-86
2022/11/25 12:08:31;;;;;;;19.53;13.70;;;6.90;99.90;;;;;;5013089;28;20190;-86
2022/11/25 12:11:04;;;;;;;18.20;11.40;;;6.90;99.90;;;;;;4983210;28;20190;-86
2022/11/25 12:13:49;;;;;;;14.23;10.53;;;7.00;99.90;;;;;;5012353;28;20204;-86
2022/11/25 12:16:18;;;;;;;16.00;10.63;;;7.10;99.90;;;;;;5012627;28;20209;-85
2022/11/25 12:18:58;;;;;;;21.23;12.90;;;7.20;99.90;;;;;;4996106;28;20178;-86
2022/11/25 12:21:32;;;;;;;19.20;12.43;;;7.20;99.90;;;;;;5011715;28;20178;-86
2022/11/25 12:24:03;;;;;;;18.27;12.93;;;7.30;99.90;;;;;;4996408;28;20182;-86
2022/11/25 12:26:38;;;;;;;18.73;12.63;;;7.30;99.90;;;;;;4995726;28;20285;-86
2022/11/25 12:29:11;;;;;;;19.93;13.00;;;7.40;99.90;;;;;;4996448;28;20214;-86
2022/11/25 12:31:48;;;;;;;16.87;11.90;;;7.40;99.90;;;;;;4996867;28;20190;-85
2022/11/25 12:34:34;;;;;;;16.00;11.97;;;7.50;99.90;;;;;;5028782;28;20244;-86
2022/11/25 12:37:12;;;;;;;14.47;11.20;;;7.50;99.90;;;;;;5008778;28;20205;-86
2022/11/25 12:39:53;;;;;;;19.93;11.07;;;7.60;99.90;;;;;;4992621;28;20171;-86
2022/11/25 12:42:24;;;;;;;17.83;10.87;;;7.60;99.90;;;;;;4992638;28;20184;-87
2022/11/25 12:44:58;;;;;;;17.40;12.00;;;7.60;99.90;;;;;;5009039;28;20178;-86
2022/11/25 12:47:25;;;;;;;15.40;11.40;;;7.70;99.90;;;;;;4976378;28;20180;-86
2022/11/25 12:49:53;;;;;;;18.23;11.57;;;7.70;99.90;;;;;;4992225;28;20191;-86
2022/11/25 12:52:21;;;;;;;16.27;11.40;;;7.70;99.90;;;;;;4992442;28;20242;-86
2022/11/25 12:55:26;;;;;;;12.93;10.00;;;7.70;99.90;;;;;;5005812;28;20188;-86
2022/11/25 12:57:58;;;;;;;14.87;9.97;;;7.70;99.90;;;;;;5011732;28;20179;-86
2022/11/25 13:00:50;;;;;;;13.80;9.60;;;7.70;99.90;;;;;;5028250;28;20187;-86
2022/11/25 13:03:46;;;;;;;12.80;9.23;;;7.70;99.90;;;;;;5028916;28;20238;-86
2022/11/25 13:06:38;;;;;;;11.70;8.40;;;7.80;99.90;;;;;;4993873;28;20207;-86
2022/11/25 13:09:18;;;;;;;11.77;7.47;;;7.80;99.90;;;;;;4995287;28;20217;-86
2022/11/25 13:12:22;;;;;;;10.90;7.30;;;7.80;99.90;;;;;;5011319;28;20244;-86
2022/11/25 13:15:06;;;;;;;8.87;7.00;;;7.90;99.90;;;;;;4995561;28;20219;-86
2022/11/25 13:17:38;;;;;;;4.37;3.80;;;8.00;99.90;;;;;;4995055;28;20202;-86
2022/11/25 13:20:22;;;;;;;6.60;3.63;;;8.10;99.90;;;;;;5011901;28;20317;-85
2022/11/25 13:23:03;;;;;;;4.20;2.93;;;8.20;99.90;;;;;;5006738;28;20184;-86
2022/11/25 13:25:30;;;;;;;5.07;3.53;;;8.20;99.90;;;;;;4992306;28;20210;-86
2022/11/25 13:27:58;;;;;;;5.17;3.07;;;8.30;99.90;;;;;;5022587;28;20175;-86
2022/11/25 13:30:35;;;;;;;4.13;1.97;;;8.40;99.90;;;;;;4995695;28;20190;-86
2022/11/25 13:33:11;;;;;;;6.97;4.80;;;8.50;99.90;;;;;;5014672;28;20221;-86